Time;durP1;ratioP1;P1;durP2;ratioP2;P2;SDS_P1;SDS_P2;PMS_P1;PMS_P2;Temp;Humidity;BMP_temperature;BMP_pressure;BME280_temperature;BME280_humidity;BME280_pressure;Samples;Min_cycle;Max_cycle;Signal;HPM_P1;HPM_P2
2022/03/20 00:00:53;;;;;;;28.20;17.07;;;;;;;;;;5030136;28;20645;-87
2022/03/20 00:03:58;;;;;;;29.23;18.03;;;;;;;;;;5041411;28;20618;-85
2022/03/20 00:07:02;;;;;;;30.57;17.90;;;;;;;;;;5030371;28;20555;-86
2022/03/20 00:10:08;;;;;;;28.77;17.77;;;;;;;;;;5041962;28;20908;-85
2022/03/20 00:13:18;;;;;;;29.70;17.30;;;;;;;;;;5043227;28;20552;-83
2022/03/20 00:16:23;;;;;;;29.00;17.67;;;;;;;;;;5053282;28;20550;-87
2022/03/20 00:19:28;;;;;;;30.50;18.03;;;;;;;;;;5041774;28;20573;-84
2022/03/20 00:22:34;;;;;;;30.77;18.07;;;;;;;;;;5041990;28;20601;-86
2022/03/20 00:25:42;;;;;;;29.67;17.43;;;;;;;;;;5041199;28;20614;-87
2022/03/20 00:28:46;;;;;;;30.80;18.57;;;;;;;;;;5041730;28;20554;-86
2022/03/20 00:31:51;;;;;;;31.03;18.17;;;;;;;;;;5031168;28;20629;-84
2022/03/20 00:34:59;;;;;;;30.77;18.50;;;;;;;;;;5043115;28;20602;-86
2022/03/20 00:42:31;;;;;;;31.13;18.60;;;;;;;;;;5053626;28;20546;-86
2022/03/20 00:45:35;;;;;;;31.03;17.57;;;;;;;;;;5029985;28;20957;-85
2022/03/20 00:48:40;;;;;;;29.47;17.03;;;;;;;;;;5043957;28;20553;-83
2022/03/20 00:51:44;;;;;;;30.70;18.33;;;;;;;;;;5035490;28;20629;-83
2022/03/20 00:54:48;;;;;;;32.93;17.90;;;;;;;;;;5035690;28;20921;-83
2022/03/20 00:57:52;;;;;;;28.33;17.73;;;;;;;;;;5035471;28;20546;-83
2022/03/20 01:00:56;;;;;;;32.07;19.30;;;;;;;;;;5034992;28;21012;-85
2022/03/20 01:04:01;;;;;;;30.47;18.43;;;;;;;;;;5044958;28;20604;-85
2022/03/20 01:07:06;;;;;;;30.83;17.87;;;;;;;;;;5033809;28;20555;-85
2022/03/20 01:10:11;;;;;;;30.47;18.67;;;;;;;;;;5044465;28;20611;-87
2022/03/20 01:13:15;;;;;;;28.20;18.43;;;;;;;;;;5056471;28;20550;-87
2022/03/20 01:16:19;;;;;;;30.27;19.00;;;;;;;;;;5044983;28;20552;-87
2022/03/20 01:19:24;;;;;;;29.93;18.97;;;;;;;;;;5033543;28;20615;-87
2022/03/20 01:22:29;;;;;;;28.83;18.60;;;;;;;;;;5044904;28;20944;-87
2022/03/20 01:25:35;;;;;;;33.93;17.90;;;;;;;;;;5044569;28;20614;-87
2022/03/20 01:28:39;;;;;;;30.17;19.00;;;;;;;;;;5044997;28;21105;-87
2022/03/20 01:31:43;;;;;;;33.17;18.70;;;;;;;;;;5033410;28;20632;-87
2022/03/20 01:34:50;;;;;;;30.07;18.17;;;;;;;;;;5063003;28;20538;-84
2022/03/20 01:37:54;;;;;;;32.90;18.20;;;;;;;;;;5066960;28;20549;-86
2022/03/20 01:41:00;;;;;;;30.07;18.23;;;;;;;;;;5033495;28;21192;-87
2022/03/20 01:44:04;;;;;;;28.20;17.90;;;;;;;;;;5055744;28;20548;-87
2022/03/20 01:47:09;;;;;;;33.50;18.63;;;;;;;;;;5033177;28;20561;-86
2022/03/20 01:50:15;;;;;;;32.07;18.67;;;;;;;;;;5044154;28;20546;-86
2022/03/20 01:53:20;;;;;;;31.53;18.97;;;;;;;;;;5055949;28;20546;-87
2022/03/20 01:56:24;;;;;;;31.07;19.20;;;;;;;;;;5055954;28;20890;-87
2022/03/20 01:59:28;;;;;;;30.57;19.07;;;;;;;;;;5054914;28;20554;-87
2022/03/20 02:02:32;;;;;;;29.90;18.40;;;;;;;;;;5055341;28;20554;-87
2022/03/20 02:05:37;;;;;;;31.63;19.17;;;;;;;;;;5044113;28;20609;-87
2022/03/20 02:08:43;;;;;;;28.97;17.97;;;;;;;;;;5032493;28;20546;-87
2022/03/20 02:11:48;;;;;;;29.40;18.00;;;;;;;;;;5043520;28;20650;-87
2022/03/20 02:14:53;;;;;;;32.50;19.47;;;;;;;;;;5044194;28;20540;-87
2022/03/20 02:17:58;;;;;;;31.03;19.47;;;;;;;;;;5057045;28;20562;-85
2022/03/20 02:21:05;;;;;;;31.07;18.23;;;;;;;;;;5047237;28;20969;-83
2022/03/20 02:24:49;;;;;;;28.90;17.70;;;;;;;;;;5046120;28;21142;-83
2022/03/20 02:27:53;;;;;;;30.23;18.17;;;;;;;;;;4995461;28;21144;-84
2022/03/20 02:30:58;;;;;;;33.80;19.50;;;;;;;;;;5054456;28;20645;-85
2022/03/20 02:34:02;;;;;;;40.10;19.43;;;;;;;;;;5048034;28;20542;-83
2022/03/20 02:37:08;;;;;;;30.07;17.90;;;;;;;;;;5044013;28;20562;-87
2022/03/20 02:40:14;;;;;;;30.00;18.43;;;;;;;;;;5043482;28;20555;-84
2022/03/20 02:43:18;;;;;;;30.03;18.93;;;;;;;;;;5044481;28;20548;-83
2022/03/20 02:46:23;;;;;;;31.27;18.53;;;;;;;;;;5043885;28;20603;-84
2022/03/20 02:49:29;;;;;;;27.47;17.77;;;;;;;;;;5055850;28;20611;-85
2022/03/20 02:52:39;;;;;;;30.70;18.90;;;;;;;;;;5054437;28;20552;-87
2022/03/20 02:55:45;;;;;;;33.03;19.07;;;;;;;;;;5033237;28;21093;-85
2022/03/20 02:58:49;;;;;;;31.47;19.10;;;;;;;;;;5054171;28;20550;-85
2022/03/20 03:01:53;;;;;;;28.43;18.40;;;;;;;;;;5042727;28;21214;-86
2022/03/20 03:04:59;;;;;;;29.63;17.83;;;;;;;;;;5054191;28;20602;-86
2022/03/20 03:11:26;;;;;;;32.10;19.57;;;;;;;;;;5041416;28;20637;-86
2022/03/20 03:17:56;;;;;;;30.77;18.53;;;;;;;;;;5053569;28;20564;-86
2022/03/20 03:21:09;;;;;;;29.00;17.93;;;;;;;;;;5042902;28;20645;-86
2022/03/20 03:24:37;;;;;;;29.47;17.80;;;;;;;;;;5054069;28;20563;-86
2022/03/20 03:27:45;;;;;;;31.10;18.53;;;;;;;;;;5053983;28;20614;-86
2022/03/20 03:30:49;;;;;;;33.20;19.43;;;;;;;;;;5041911;28;20638;-86
2022/03/20 03:37:42;;;;;;;30.37;19.30;;;;;;;;;;5042181;28;20551;-86
2022/03/20 03:41:31;;;;;;;31.47;18.90;;;;;;;;;;5054490;28;20633;-86
2022/03/20 03:44:36;;;;;;;29.83;18.17;;;;;;;;;;5042000;28;20902;-86
2022/03/20 03:47:41;;;;;;;30.13;18.60;;;;;;;;;;5052838;28;20609;-86
2022/03/20 03:50:48;;;;;;;33.37;20.00;;;;;;;;;;5041929;28;20641;-86
2022/03/20 03:53:53;;;;;;;31.93;18.97;;;;;;;;;;5041674;28;20560;-86
2022/03/20 03:56:58;;;;;;;33.77;19.63;;;;;;;;;;5041798;28;20544;-86
2022/03/20 04:00:03;;;;;;;32.00;18.73;;;;;;;;;;5053179;28;20970;-86
2022/03/20 04:03:08;;;;;;;30.67;18.33;;;;;;;;;;5041910;28;20548;-86
2022/03/20 04:06:12;;;;;;;30.30;19.53;;;;;;;;;;5052955;28;20601;-86
2022/03/20 04:09:17;;;;;;;32.50;20.27;;;;;;;;;;5053450;28;20569;-86
2022/03/20 04:12:21;;;;;;;30.87;19.60;;;;;;;;;;5041817;28;20630;-86
2022/03/20 04:15:25;;;;;;;30.77;19.73;;;;;;;;;;5053517;28;20546;-86
2022/03/20 04:18:29;;;;;;;29.10;19.10;;;;;;;;;;5053180;28;20558;-86
2022/03/20 04:21:36;;;;;;;31.23;19.17;;;;;;;;;;5052842;28;20637;-86
2022/03/20 04:24:41;;;;;;;29.60;18.30;;;;;;;;;;5052732;28;20617;-86
2022/03/20 04:27:46;;;;;;;31.70;19.20;;;;;;;;;;5041471;28;20546;-86
2022/03/20 04:30:52;;;;;;;29.50;18.30;;;;;;;;;;5030197;28;20634;-86
2022/03/20 04:33:56;;;;;;;29.53;18.63;;;;;;;;;;5029710;28;20910;-86
2022/03/20 04:37:05;;;;;;;32.53;19.30;;;;;;;;;;5029942;28;20546;-86
2022/03/20 04:40:18;;;;;;;31.70;18.60;;;;;;;;;;5041475;28;20568;-86
2022/03/20 04:44:18;;;;;;;28.30;18.73;;;;;;;;;;5053583;28;20621;-86
2022/03/20 05:00:58;;;;;;;32.30;19.77;;;;;;;;;;5040602;28;20647;-86
2022/03/20 05:04:32;;;;;;;31.57;19.47;;;;;;;;;;5052740;28;20542;-86
2022/03/20 05:07:38;;;;;;;31.30;18.97;;;;;;;;;;5029332;28;20598;-86
2022/03/20 05:15:42;;;;;;;31.10;18.77;;;;;;;;;;5078557;28;20535;-84
2022/03/20 05:18:48;;;;;;;35.43;19.60;;;;;;;;;;5052272;28;21183;-86
2022/03/20 05:21:57;;;;;;;32.37;19.47;;;;;;;;;;5018132;28;20642;-86
2022/03/20 05:25:09;;;;;;;29.00;18.47;;;;;;;;;;5040688;28;20566;-86
2022/03/20 05:28:15;;;;;;;32.83;19.87;;;;;;;;;;5040787;28;20985;-86
2022/03/20 05:31:22;;;;;;;29.87;17.30;;;;;;;;;;5040624;28;20641;-86
2022/03/20 05:34:27;;;;;;;28.10;17.83;;;;;;;;;;5041317;28;20535;-86
2022/03/20 05:37:32;;;;;;;29.57;18.90;;;;;;;;;;5055389;28;20614;-86
2022/03/20 05:40:38;;;;;;;31.67;18.53;;;;;;;;;;5032708;28;21210;-86
2022/03/20 05:43:43;;;;;;;31.20;19.30;;;;;;;;;;5044036;28;21133;-86
2022/03/20 05:46:49;;;;;;;32.13;18.07;;;;;;;;;;5067300;28;20602;-86
2022/03/20 05:49:54;;;;;;;30.03;19.27;;;;;;;;;;5043843;28;20615;-85
2022/03/20 05:52:58;;;;;;;30.93;18.27;;;;;;;;;;5043962;28;20597;-86
2022/03/20 05:59:26;;;;;;;28.27;17.70;;;;;;;;;;5046477;28;20555;-86
2022/03/20 06:02:33;;;;;;;30.20;17.80;;;;;;;;;;5032273;28;20560;-86
2022/03/20 06:05:40;;;;;;;45.67;27.17;;;;;;;;;;5055116;28;20615;-86
2022/03/20 06:08:49;;;;;;;33.13;18.03;;;;;;;;;;5054832;28;20621;-86
2022/03/20 06:11:54;;;;;;;29.30;19.00;;;;;;;;;;5032350;28;20631;-86
2022/03/20 06:14:59;;;;;;;30.17;19.70;;;;;;;;;;5043863;28;20550;-86
2022/03/20 06:18:06;;;;;;;28.63;17.73;;;;;;;;;;5032281;28;20558;-86
2022/03/20 06:21:12;;;;;;;30.73;18.27;;;;;;;;;;5032087;28;20637;-86
2022/03/20 06:24:36;;;;;;;30.97;19.57;;;;;;;;;;5043195;28;21179;-86
2022/03/20 06:27:43;;;;;;;27.67;16.87;;;;;;;;;;5043437;28;21102;-86
2022/03/20 06:30:53;;;;;;;29.33;17.83;;;;;;;;;;5054617;28;21002;-86
2022/03/20 06:34:48;;;;;;;30.47;17.80;;;;;;;;;;5055489;28;20548;-86
2022/03/20 06:38:07;;;;;;;26.27;16.80;;;;;;;;;;5031752;28;20577;-86
2022/03/20 06:41:11;;;;;;;29.17;17.70;;;;;;;;;;5033288;28;21001;-85
2022/03/20 06:44:16;;;;;;;23.87;15.43;;;;;;;;;;5044271;28;20542;-85
2022/03/20 06:47:23;;;;;;;27.43;17.40;;;;;;;;;;5044380;28;21175;-84
2022/03/20 06:50:27;;;;;;;29.03;17.67;;;;;;;;;;5032831;28;20629;-84
2022/03/20 06:53:35;;;;;;;25.40;16.97;;;;;;;;;;5043932;28;20566;-86
2022/03/20 07:01:35;;;;;;;24.57;15.40;;;;;;;;;;5042744;28;20645;-84
2022/03/20 07:04:41;;;;;;;26.77;15.00;;;;;;;;;;5042723;28;20562;-85
2022/03/20 07:07:45;;;;;;;19.77;14.17;;;;;;;;;;5042518;28;20203;-85
2022/03/20 07:11:17;;;;;;;24.30;15.17;;;;;;;;;;5030735;28;20231;-85
2022/03/20 07:14:22;;;;;;;21.80;14.27;;;;;;;;;;5042101;28;20188;-85
2022/03/20 07:17:28;;;;;;;23.67;15.67;;;;;;;;;;5042246;28;20205;-86
2022/03/20 07:20:35;;;;;;;23.03;15.00;;;;;;;;;;5042192;28;20231;-85
2022/03/20 07:31:29;;;;;;;22.87;14.87;;;;;;;;;;5044912;28;20219;-84
2022/03/20 07:34:36;;;;;;;21.70;13.50;;;;;;;;;;5043803;28;20177;-84
2022/03/20 07:37:40;;;;;;;22.30;13.90;;;;;;;;;;5044070;28;20634;-84
2022/03/20 07:40:45;;;;;;;20.20;13.97;;;;;;;;;;5043471;28;20215;-88
2022/03/20 07:43:50;;;;;;;19.30;13.50;;;;;;;;;;5042530;28;20184;-88
2022/03/20 07:46:54;;;;;;;21.00;14.57;;;;;;;;;;5053843;28;20212;-87
2022/03/20 07:49:59;;;;;;;21.63;13.63;;;;;;;;;;5042312;28;20180;-88
2022/03/20 07:53:04;;;;;;;19.00;13.93;;;;;;;;;;5055172;28;20180;-84
2022/03/20 07:56:20;;;;;;;19.30;12.90;;;;;;;;;;5032861;28;20199;-84
2022/03/20 08:00:17;;;;;;;21.13;13.60;;;;;;;;;;5046215;28;20200;-84
2022/03/20 08:03:23;;;;;;;19.97;13.17;;;;;;;;;;5032364;28;20560;-84
2022/03/20 08:06:33;;;;;;;22.20;14.83;;;;;;;;;;5057025;28;20200;-84
2022/03/20 08:09:37;;;;;;;22.93;13.10;;;;;;;;;;5034277;28;20206;-84
2022/03/20 08:12:41;;;;;;;21.00;13.00;;;;;;;;;;5055822;28;20192;-84
2022/03/20 08:15:46;;;;;;;23.57;14.27;;;;;;;;;;5033547;28;20292;-84
2022/03/20 08:18:50;;;;;;;20.27;13.30;;;;;;;;;;5045314;28;20168;-84
2022/03/20 08:21:55;;;;;;;18.63;13.00;;;;;;;;;;5033362;28;20218;-84
2022/03/20 08:24:59;;;;;;;17.33;12.87;;;;;;;;;;5042233;28;20184;-84
2022/03/20 08:28:05;;;;;;;17.60;12.73;;;;;;;;;;5042194;28;20215;-84
2022/03/20 08:31:10;;;;;;;16.93;12.87;;;;;;;;;;5043492;28;20227;-84
2022/03/20 08:34:15;;;;;;;17.40;12.60;;;;;;;;;;5043381;28;20195;-84
2022/03/20 08:37:21;;;;;;;18.53;13.23;;;;;;;;;;5033208;28;20679;-84
2022/03/20 08:40:26;;;;;;;22.43;13.17;;;;;;;;;;5031851;28;20211;-84
2022/03/20 08:43:31;;;;;;;18.53;13.17;;;;;;;;;;5042550;28;20191;-84
2022/03/20 08:46:36;;;;;;;16.67;12.43;;;;;;;;;;5041587;28;20215;-87
2022/03/20 08:49:40;;;;;;;17.83;12.10;;;;;;;;;;5040969;28;20191;-87
2022/03/20 08:52:46;;;;;;;17.67;12.60;;;;;;;;;;5077556;28;20215;-85
2022/03/20 08:55:50;;;;;;;17.00;12.30;;;;;;;;;;5064041;28;20250;-86
2022/03/20 08:59:00;;;;;;;16.13;12.00;;;;;;;;;;5064348;28;20558;-88
2022/03/20 09:02:22;;;;;;;16.97;12.07;;;;;;;;;;5053246;28;20234;-87
2022/03/20 09:05:27;;;;;;;16.50;11.87;;;;;;;;;;5029862;28;20184;-87
2022/03/20 09:08:30;;;;;;;17.07;12.60;;;;;;;;;;5040811;28;20207;-87
2022/03/20 09:11:35;;;;;;;15.87;12.00;;;;;;;;;;5044826;28;20601;-87
2022/03/20 09:14:39;;;;;;;17.27;11.97;;;;;;;;;;5045199;28;20187;-87
2022/03/20 09:21:08;;;;;;;16.90;12.13;;;;;;;;;;5044808;28;20227;-87
2022/03/20 09:24:12;;;;;;;16.73;11.77;;;;;;;;;;5055924;28;20666;-87
2022/03/20 09:27:16;;;;;;;16.47;11.23;;;;;;;;;;5033085;28;20231;-87
2022/03/20 09:30:21;;;;;;;16.57;11.67;;;;;;;;;;5033190;28;20191;-87
2022/03/20 09:33:27;;;;;;;17.57;13.20;;;;;;;;;;5044145;28;20210;-87
2022/03/20 09:36:32;;;;;;;16.73;12.10;;;;;;;;;;5044351;28;20184;-87
2022/03/20 09:39:36;;;;;;;16.87;11.97;;;;;;;;;;5055492;28;20539;-87
2022/03/20 09:42:41;;;;;;;17.47;11.47;;;;;;;;;;5033004;28;20183;-87
2022/03/20 09:45:48;;;;;;;14.63;11.03;;;;;;;;;;5067027;28;20183;-88
2022/03/20 09:48:53;;;;;;;16.57;10.60;;;;;;;;;;5055567;28;20191;-88
2022/03/20 09:51:58;;;;;;;15.10;11.27;;;;;;;;;;5032685;28;20215;-87
2022/03/20 09:55:04;;;;;;;15.00;11.47;;;;;;;;;;5032595;28;20183;-87
2022/03/20 09:58:08;;;;;;;17.30;12.37;;;;;;;;;;5043998;28;20184;-87
2022/03/20 10:01:14;;;;;;;14.13;10.83;;;;;;;;;;5032231;28;20234;-87
2022/03/20 10:04:19;;;;;;;16.40;11.10;;;;;;;;;;5055270;28;20195;-87
2022/03/20 10:07:27;;;;;;;16.70;11.30;;;;;;;;;;5055052;28;20231;-87
2022/03/20 10:10:32;;;;;;;15.93;11.37;;;;;;;;;;5043412;28;20227;-87
2022/03/20 10:13:36;;;;;;;15.47;11.80;;;;;;;;;;5032392;28;20187;-87
2022/03/20 10:16:42;;;;;;;14.90;10.67;;;;;;;;;;5032200;28;20184;-87
2022/03/20 10:19:46;;;;;;;14.63;10.70;;;;;;;;;;5031959;28;20191;-87
2022/03/20 10:22:50;;;;;;;14.37;10.40;;;;;;;;;;5043489;28;20547;-87
2022/03/20 10:25:55;;;;;;;15.23;11.37;;;;;;;;;;5055104;28;20191;-87
2022/03/20 10:28:59;;;;;;;14.60;10.57;;;;;;;;;;5054905;28;20535;-87
2022/03/20 10:32:08;;;;;;;16.10;11.57;;;;;;;;;;5043261;28;20709;-87
2022/03/20 10:35:13;;;;;;;15.47;11.27;;;;;;;;;;5043646;28;20188;-87
2022/03/20 10:38:38;;;;;;;16.03;11.53;;;;;;;;;;5054888;28;20642;-87
2022/03/20 10:41:45;;;;;;;15.97;11.43;;;;;;;;;;5042918;28;20219;-87
2022/03/20 10:45:03;;;;;;;14.77;10.90;;;;;;;;;;5043240;28;20203;-87
2022/03/20 10:48:10;;;;;;;13.47;10.83;;;;;;;;;;5043101;28;20583;-87
2022/03/20 10:51:25;;;;;;;14.70;10.33;;;;;;;;;;5031399;28;20222;-87
2022/03/20 10:54:45;;;;;;;15.47;10.33;;;;;;;;;;5043022;28;20191;-86
2022/03/20 10:57:50;;;;;;;15.23;10.83;;;;;;;;;;5043057;28;20188;-86
2022/03/20 11:00:56;;;;;;;14.00;10.47;;;;;;;;;;5031110;28;20239;-87
2022/03/20 11:04:01;;;;;;;14.70;10.33;;;;;;;;;;5054651;28;20191;-87
2022/03/20 11:07:07;;;;;;;14.50;10.73;;;;;;;;;;5045606;28;20234;-87
2022/03/20 11:10:12;;;;;;;14.30;11.03;;;;;;;;;;5044932;28;20191;-86
2022/03/20 11:13:22;;;;;;;13.23;10.33;;;;;;;;;;5032878;28;20203;-86
2022/03/20 11:16:28;;;;;;;16.17;11.00;;;;;;;;;;5043671;28;20199;-87
2022/03/20 11:19:35;;;;;;;15.13;11.70;;;;;;;;;;5031792;28;20703;-87
2022/03/20 11:22:51;;;;;;;14.30;11.20;;;;;;;;;;5043521;28;20536;-84
2022/03/20 11:25:57;;;;;;;13.00;9.67;;;;;;;;;;5033939;28;20195;-84
2022/03/20 11:29:06;;;;;;;14.33;10.13;;;;;;;;;;5033291;28;20219;-84
2022/03/20 11:32:11;;;;;;;14.10;11.10;;;;;;;;;;5054855;28;20227;-84
2022/03/20 11:35:15;;;;;;;16.43;10.67;;;;;;;;;;5055393;28;20180;-84
2022/03/20 11:38:22;;;;;;;14.00;10.60;;;;;;;;;;5043538;28;20262;-84
2022/03/20 11:41:26;;;;;;;15.73;11.17;;;;;;;;;;5043491;28;20227;-84
2022/03/20 11:44:31;;;;;;;17.00;9.97;;;;;;;;;;5055452;28;20195;-84
2022/03/20 11:47:38;;;;;;;14.43;10.93;;;;;;;;;;5032285;28;20215;-84
2022/03/20 11:50:45;;;;;;;12.77;10.10;;;;;;;;;;5044707;28;20705;-83
2022/03/20 11:54:03;;;;;;;15.53;10.10;;;;;;;;;;5044680;28;20551;-83
2022/03/20 11:57:32;;;;;;;16.87;11.27;;;;;;;;;;5055713;28;20559;-83
2022/03/20 12:00:42;;;;;;;13.40;10.33;;;;;;;;;;5045833;28;20215;-84
2022/03/20 12:03:55;;;;;;;15.50;11.00;;;;;;;;;;5046442;28;20180;-83
2022/03/20 12:07:19;;;;;;;13.53;10.77;;;;;;;;;;5035511;28;20212;-83
2022/03/20 12:10:34;;;;;;;16.13;10.77;;;;;;;;;;5058062;28;20227;-84
2022/03/20 12:14:36;;;;;;;14.33;10.90;;;;;;;;;;5035777;28;20203;-83
2022/03/20 12:17:58;;;;;;;15.73;10.90;;;;;;;;;;4993841;28;20184;-83
2022/03/20 12:21:03;;;;;;;13.63;10.70;;;;;;;;;;5008472;28;20313;-83
2022/03/20 12:24:40;;;;;;;14.13;10.43;;;;;;;;;;5035159;28;20195;-83
2022/03/20 12:27:45;;;;;;;15.23;10.83;;;;;;;;;;5057760;28;20207;-83
2022/03/20 12:30:50;;;;;;;14.47;10.00;;;;;;;;;;5057367;28;20222;-83
2022/03/20 12:34:20;;;;;;;15.73;10.97;;;;;;;;;;5053506;28;20191;-83
2022/03/20 12:37:28;;;;;;;13.27;10.10;;;;;;;;;;5044034;28;20187;-83
2022/03/20 12:40:34;;;;;;;15.37;10.53;;;;;;;;;;5035909;28;20227;-83
2022/03/20 12:43:39;;;;;;;14.33;10.77;;;;;;;;;;5047178;28;20682;-84
2022/03/20 12:46:45;;;;;;;13.40;10.40;;;;;;;;;;5059782;28;20183;-84
2022/03/20 12:50:01;;;;;;;14.17;10.50;;;;;;;;;;5036950;28;20646;-84
2022/03/20 12:53:14;;;;;;;13.43;9.77;;;;;;;;;;5047287;28;20566;-84
2022/03/20 12:56:32;;;;;;;14.07;10.27;;;;;;;;;;5036368;28;20183;-84
2022/03/20 12:59:38;;;;;;;13.57;10.37;;;;;;;;;;5047452;28;20206;-84
2022/03/20 13:02:58;;;;;;;14.07;10.57;;;;;;;;;;5120789;23;20238;-85
2022/03/20 13:06:03;;;;;;;12.67;9.47;;;;;;;;;;5054233;28;20289;-87
2022/03/20 13:09:12;;;;;;;14.03;10.37;;;;;;;;;;5067349;28;20204;-85
2022/03/20 13:12:16;;;;;;;13.40;9.83;;;;;;;;;;5067203;28;20218;-86
2022/03/20 13:15:27;;;;;;;12.37;10.13;;;;;;;;;;5068019;28;20186;-85
2022/03/20 13:18:32;;;;;;;12.33;10.00;;;;;;;;;;5055638;28;20179;-87
2022/03/20 13:21:48;;;;;;;12.43;10.10;;;;;;;;;;5056622;28;20218;-86
2022/03/20 13:24:53;;;;;;;16.47;10.40;;;;;;;;;;5055614;28;20191;-86
2022/03/20 13:27:57;;;;;;;13.53;10.20;;;;;;;;;;5055930;28;20214;-85
2022/03/20 13:31:10;;;;;;;12.63;10.00;;;;;;;;;;5067328;28;20289;-85
2022/03/20 13:34:17;;;;;;;11.80;9.70;;;;;;;;;;5055629;28;20565;-86
2022/03/20 13:37:22;;;;;;;13.20;9.87;;;;;;;;;;5078565;28;20181;-86
2022/03/20 13:40:29;;;;;;;12.73;9.90;;;;;;;;;;5078768;28;20175;-85
2022/03/20 13:43:34;;;;;;;15.90;10.63;;;;;;;;;;5079405;28;20179;-86
2022/03/20 13:46:38;;;;;;;12.50;9.70;;;;;;;;;;5056618;28;20182;-86
2022/03/20 13:49:44;;;;;;;13.37;9.77;;;;;;;;;;5056734;28;20218;-86
2022/03/20 13:52:51;;;;;;;13.00;10.60;;;;;;;;;;5067451;28;20223;-86
2022/03/20 13:55:55;;;;;;;12.27;9.20;;;;;;;;;;5066351;28;20187;-86
2022/03/20 13:59:07;;;;;;;12.97;9.67;;;;;;;;;;5056138;28;20202;-86
2022/03/20 14:02:12;;;;;;;12.77;10.00;;;;;;;;;;5056060;28;20234;-87
2022/03/20 14:05:24;;;;;;;14.47;10.50;;;;;;;;;;5057118;28;20305;-86
2022/03/20 14:08:28;;;;;;;14.73;10.27;;;;;;;;;;5055895;28;20214;-86
2022/03/20 14:11:32;;;;;;;13.33;9.23;;;;;;;;;;5057011;28;20289;-85
2022/03/20 14:14:43;;;;;;;14.13;10.03;;;;;;;;;;5056408;28;20200;-87
2022/03/20 14:17:52;;;;;;;13.20;9.70;;;;;;;;;;5068227;28;20187;-86
2022/03/20 14:21:14;;;;;;;15.13;9.93;;;;;;;;;;5056677;28;20226;-86
2022/03/20 14:24:19;;;;;;;12.67;9.27;;;;;;;;;;5066511;28;20187;-85
2022/03/20 14:27:27;;;;;;;13.97;9.00;;;;;;;;;;5066459;28;20181;-86
2022/03/20 14:40:55;;;;;;;14.27;9.90;;;;;;;;;;5077089;28;20187;-87
2022/03/20 14:44:14;;;;;;;12.23;9.43;;;;;;;;;;5054021;28;20184;-87
2022/03/20 14:47:20;;;;;;;15.07;9.47;;;;;;;;;;5065834;28;20180;-86
2022/03/20 14:50:24;;;;;;;12.63;9.77;;;;;;;;;;5065995;28;20546;-86
2022/03/20 14:53:32;;;;;;;13.60;10.43;;;;;;;;;;5065631;28;20179;-86
2022/03/20 14:56:39;;;;;;;14.60;9.40;;;;;;;;;;5053877;28;20266;-86
2022/03/20 14:59:44;;;;;;;13.70;9.43;;;;;;;;;;5054058;28;20200;-86
2022/03/20 15:02:48;;;;;;;12.60;9.30;;;;;;;;;;5054263;28;20238;-86
2022/03/20 15:05:53;;;;;;;12.70;9.20;;;;;;;;;;5066041;28;20186;-87
2022/03/20 15:12:20;;;;;;;13.13;9.63;;;;;;;;;;5077817;28;20215;-86
2022/03/20 15:15:24;;;;;;;12.37;9.33;;;;;;;;;;5064674;28;20210;-86
2022/03/20 15:18:28;;;;;;;11.70;9.03;;;;;;;;;;5052693;28;20194;-86
2022/03/20 15:21:32;;;;;;;11.40;8.87;;;;;;;;;;5052216;28;20228;-87
2022/03/20 15:24:38;;;;;;;12.30;9.03;;;;;;;;;;5052758;28;20187;-86
2022/03/20 15:27:42;;;;;;;13.83;9.13;;;;;;;;;;5053067;28;20184;-87
2022/03/20 15:30:46;;;;;;;13.13;10.33;;;;;;;;;;5052021;28;20668;-87
2022/03/20 15:33:51;;;;;;;12.80;9.03;;;;;;;;;;5075304;28;20199;-86
2022/03/20 15:36:55;;;;;;;12.07;9.10;;;;;;;;;;5069537;28;20195;-87
2022/03/20 15:40:00;;;;;;;13.13;9.50;;;;;;;;;;5052023;28;20171;-86
2022/03/20 15:43:04;;;;;;;12.73;9.17;;;;;;;;;;5074040;28;20660;-86
2022/03/20 15:46:08;;;;;;;11.40;8.83;;;;;;;;;;5051566;28;20182;-85
2022/03/20 15:49:13;;;;;;;12.67;8.80;;;;;;;;;;5050654;28;20210;-86
2022/03/20 15:52:16;;;;;;;12.40;9.10;;;;;;;;;;5051320;28;20226;-85
2022/03/20 15:55:21;;;;;;;11.73;8.57;;;;;;;;;;5062901;28;20558;-86
2022/03/20 15:58:28;;;;;;;12.33;9.03;;;;;;;;;;5062656;28;20179;-85
2022/03/20 16:01:32;;;;;;;12.10;8.67;;;;;;;;;;5050603;28;20237;-85
2022/03/20 16:04:36;;;;;;;11.37;8.50;;;;;;;;;;5050787;28;20178;-86
2022/03/20 16:07:40;;;;;;;11.27;8.47;;;;;;;;;;5051302;28;20184;-86
2022/03/20 16:10:44;;;;;;;12.97;8.53;;;;;;;;;;5062195;28;20184;-86
2022/03/20 16:13:49;;;;;;;12.17;8.67;;;;;;;;;;5050913;28;20558;-86
2022/03/20 16:16:53;;;;;;;12.37;8.83;;;;;;;;;;5052463;28;20175;-87
2022/03/20 16:19:57;;;;;;;12.53;8.53;;;;;;;;;;5052679;28;20208;-88
2022/03/20 16:29:47;;;;;;;13.60;9.40;;;;;;;;;;5065857;28;20215;-86
2022/03/20 16:32:52;;;;;;;11.83;8.70;;;;;;;;;;5054540;28;20207;-87
2022/03/20 16:35:56;;;;;;;13.37;10.07;;;;;;;;;;5053402;28;20638;-87
2022/03/20 16:39:00;;;;;;;15.80;9.80;;;;;;;;;;5053744;28;20736;-86
2022/03/20 16:42:06;;;;;;;12.47;8.83;;;;;;;;;;5054486;28;20589;-86
2022/03/20 16:45:13;;;;;;;14.07;9.20;;;;;;;;;;5065896;28;20184;-86
2022/03/20 16:48:18;;;;;;;13.30;9.10;;;;;;;;;;5053689;28;20204;-86
2022/03/20 16:51:23;;;;;;;13.53;9.23;;;;;;;;;;5053845;28;20226;-87
2022/03/20 16:54:27;;;;;;;10.93;8.40;;;;;;;;;;5077057;28;20658;-87
2022/03/20 16:57:31;;;;;;;15.53;8.87;;;;;;;;;;5054390;28;20206;-86
2022/03/20 17:00:41;;;;;;;11.07;9.03;;;;;;;;;;5065329;28;20202;-87
2022/03/20 17:03:45;;;;;;;15.50;9.17;;;;;;;;;;5054648;28;20183;-87
2022/03/20 17:06:49;;;;;;;15.50;10.30;;;;;;;;;;5066259;28;20202;-88
2022/03/20 17:09:53;;;;;;;14.20;9.23;;;;;;;;;;5066024;28;20298;-87
2022/03/20 17:12:57;;;;;;;14.23;9.33;;;;;;;;;;5063762;28;20218;-88
2022/03/20 17:16:02;;;;;;;10.97;7.93;;;;;;;;;;5061261;28;20563;-88
2022/03/20 17:19:06;;;;;;;10.20;8.13;;;;;;;;;;5049921;28;20657;-88
2022/03/20 17:22:11;;;;;;;13.63;9.33;;;;;;;;;;5061696;28;20222;-88
2022/03/20 17:25:15;;;;;;;13.80;9.10;;;;;;;;;;5061423;28;20189;-87
2022/03/20 17:28:20;;;;;;;15.17;9.50;;;;;;;;;;5062669;28;20171;-87
2022/03/20 17:31:24;;;;;;;15.53;9.20;;;;;;;;;;5065448;28;20215;-87
2022/03/20 17:34:29;;;;;;;12.27;8.67;;;;;;;;;;5066801;28;20179;-87
2022/03/20 17:37:33;;;;;;;12.43;9.53;;;;;;;;;;5054687;28;20194;-87
2022/03/20 17:40:39;;;;;;;10.77;8.33;;;;;;;;;;5066890;28;20186;-87
2022/03/20 17:43:44;;;;;;;14.60;9.13;;;;;;;;;;5055249;28;20175;-88
2022/03/20 17:46:49;;;;;;;12.57;8.43;;;;;;;;;;5054364;28;20203;-87
2022/03/20 17:49:53;;;;;;;9.93;8.03;;;;;;;;;;5053929;28;20223;-88
2022/03/20 17:52:57;;;;;;;14.67;9.00;;;;;;;;;;5054327;28;20207;-88
2022/03/20 17:56:02;;;;;;;12.37;8.20;;;;;;;;;;5064923;28;20176;-88
2022/03/20 17:59:24;;;;;;;11.77;8.37;;;;;;;;;;5077709;28;20503;-88
2022/03/20 18:09:13;;;;;;;13.30;8.80;;;;;;;;;;5064302;28;20199;-87
2022/03/20 18:12:17;;;;;;;15.83;8.97;;;;;;;;;;5054584;28;20219;-88
2022/03/20 18:15:23;;;;;;;11.17;8.20;;;;;;;;;;5065173;28;20172;-88
2022/03/20 18:18:29;;;;;;;10.97;7.90;;;;;;;;;;5064881;28;20179;-88
2022/03/20 18:21:34;;;;;;;15.07;8.67;;;;;;;;;;5054176;28;20551;-88
2022/03/20 18:24:38;;;;;;;12.30;7.47;;;;;;;;;;5053457;28;20195;-87
2022/03/20 18:27:42;;;;;;;9.37;6.87;;;;;;;;;;5053619;28;20175;-87
2022/03/20 18:30:49;;;;;;;10.07;7.20;;;;;;;;;;5065378;28;20204;-87
2022/03/20 18:33:53;;;;;;;11.07;7.40;;;;;;;;;;5076530;28;20176;-87
2022/03/20 18:36:57;;;;;;;10.00;6.70;;;;;;;;;;5064948;28;20653;-87
2022/03/20 18:40:02;;;;;;;10.13;7.50;;;;;;;;;;5063590;28;20192;-87
2022/03/20 18:43:07;;;;;;;13.63;7.83;;;;;;;;;;5076258;28;20183;-87
2022/03/20 18:46:11;;;;;;;11.70;7.37;;;;;;;;;;5053192;28;20188;-87
2022/03/20 18:49:15;;;;;;;9.73;7.50;;;;;;;;;;5054238;28;20212;-87
2022/03/20 18:52:20;;;;;;;11.07;7.40;;;;;;;;;;5064978;28;20215;-86
2022/03/20 18:55:25;;;;;;;12.03;7.90;;;;;;;;;;5053718;28;20176;-86
2022/03/20 18:58:29;;;;;;;9.73;7.33;;;;;;;;;;5063708;28;20519;-86
2022/03/20 19:01:34;;;;;;;10.10;7.20;;;;;;;;;;5086213;22;20235;-81
2022/03/20 19:04:39;;;;;;;8.80;6.87;;;;;;;;;;5054945;28;20195;-81
2022/03/20 19:07:44;;;;;;;9.50;6.40;;;;;;;;;;5065951;28;20191;-81
2022/03/20 19:10:48;;;;;;;10.53;6.43;;;;;;;;;;5065302;28;20219;-81
2022/03/20 19:13:52;;;;;;;9.73;6.23;;;;;;;;;;5057590;28;20184;-81
2022/03/20 19:16:56;;;;;;;10.20;6.47;;;;;;;;;;5046225;28;20180;-81
2022/03/20 19:20:02;;;;;;;8.47;6.50;;;;;;;;;;5034587;28;20603;-81
2022/03/20 19:23:07;;;;;;;9.80;7.33;;;;;;;;;;5046420;28;20211;-81
2022/03/20 19:26:12;;;;;;;8.77;6.90;;;;;;;;;;5045526;28;20176;-81
2022/03/20 19:29:15;;;;;;;9.50;7.43;;;;;;;;;;5031395;28;20204;-82
2022/03/20 19:32:20;;;;;;;11.27;7.40;;;;;;;;;;5030774;28;20691;-83
2022/03/20 19:42:12;;;;;;;11.30;7.90;;;;;;;;;;5034900;28;20213;-83